createdAt,value
2022-10-03T00:00:36.862Z,100952.56
2022-10-03T00:01:53.398Z,100953.41
2022-10-03T00:03:16.846Z,100962.34
2022-10-03T00:04:59.306Z,100964.50
2022-10-03T00:06:22.248Z,100964.34
2022-10-03T00:07:36.115Z,100968.22
2022-10-03T00:09:18.597Z,100912.22
2022-10-03T00:10:26.058Z,100962.81
2022-10-03T00:11:59.855Z,100960.66
2022-10-03T00:13:20.914Z,100942.81
2022-10-03T00:14:31.372Z,100965.22
2022-10-03T00:16:01.940Z,100934.13
2022-10-03T00:17:15.219Z,100933.47
2022-10-03T00:18:48.042Z,100959.16
2022-10-03T00:20:02.484Z,100969.97
2022-10-03T00:21:25.927Z,100960.84
2022-10-03T00:22:48.313Z,100969.28
2022-10-03T00:24:13.851Z,100902.41
2022-10-03T00:25:18.426Z,100965.28
2022-10-03T00:26:30.606Z,100970.16
2022-10-03T00:27:44.417Z,100967.31
2022-10-03T00:28:58.027Z,100973.06
2022-10-03T00:30:05.933Z,100968.69
2022-10-03T00:31:17.052Z,100871.34
2022-10-03T00:32:38.437Z,100976.94
2022-10-03T00:34:03.068Z,100967.31
2022-10-03T00:35:20.802Z,100953.22
2022-10-03T00:36:55.483Z,100965.13
2022-10-03T00:38:11.585Z,100970.66
2022-10-03T00:39:37.683Z,100939.06
2022-10-03T00:41:04.323Z,100843.09
2022-10-03T00:42:18.263Z,100974.56
2022-10-03T00:43:56.855Z,100970.38
2022-10-03T00:45:13.496Z,100973.06
2022-10-03T00:46:36.584Z,100980.84
2022-10-03T00:48:25.998Z,100974.38
2022-10-03T00:50:02.842Z,100933.56
2022-10-03T00:51:13.820Z,100974.75
2022-10-03T00:52:51.032Z,100946.16
2022-10-03T00:54:06.536Z,100956.78
2022-10-03T00:55:34.381Z,100970.22
2022-10-03T00:57:04.301Z,100979.19
2022-10-03T00:58:22.496Z,100973.41
2022-10-03T01:00:07.930Z,100977.50
2022-10-03T01:01:49.064Z,100979.28
2022-10-03T01:03:12.580Z,100973.78
2022-10-03T01:04:27.020Z,100975.63
2022-10-03T01:05:43.125Z,100906.19
2022-10-03T01:07:06.053Z,100977.50
2022-10-03T01:08:35.629Z,100981.53
2022-10-03T01:09:58.558Z,100984.22
2022-10-03T01:11:30.748Z,100983.56
2022-10-03T01:12:55.007Z,100982.91
2022-10-03T01:14:18.048Z,100983.94
2022-10-03T01:15:32.222Z,100981.22
2022-10-03T01:17:04.738Z,100979.38
2022-10-03T01:18:30.148Z,100952.81
2022-10-03T01:20:06.704Z,100982.91
2022-10-03T01:21:11.075Z,100972.47
2022-10-03T01:22:21.615Z,100955.72
2022-10-03T01:23:38.310Z,100977.09
2022-10-03T01:24:53.729Z,100977.56
2022-10-03T01:26:19.818Z,100980.09
2022-10-03T01:27:56.952Z,100954.03
2022-10-03T01:29:22.132Z,100892.97
2022-10-03T01:30:24.106Z,100977.09
2022-10-03T01:31:55.698Z,100984.63
2022-10-03T01:33:10.708Z,100963.94
2022-10-03T01:34:21.629Z,100978.94
2022-10-03T01:35:36.142Z,100984.50
2022-10-03T01:36:49.943Z,100975.72
2022-10-03T01:38:09.488Z,100988.22
2022-10-03T01:39:50.621Z,100984.97
2022-10-03T01:41:09.721Z,100982.13
2022-10-03T01:42:41.146Z,100913.31
2022-10-03T01:43:46.927Z,100943.75
2022-10-03T01:45:03.476Z,100979.28
2022-10-03T01:46:33.643Z,100927.47
2022-10-03T01:47:47.895Z,100919.91
2022-10-03T01:49:15.856Z,100984.16
2022-10-03T01:50:46.567Z,100944.81
2022-10-03T01:52:11.979Z,100991.03
2022-10-03T01:53:37.060Z,100964.63
2022-10-03T01:54:46.961Z,100985.69
2022-10-03T01:55:51.529Z,100994.13
2022-10-03T01:57:18.763Z,100965.84
2022-10-03T01:58:34.593Z,100984.38
2022-10-03T01:59:55.584Z,100987.72
2022-10-03T02:01:10.665Z,100992.47
2022-10-03T02:02:40.438Z,100986.72
2022-10-03T02:03:57.196Z,100994.13
2022-10-03T02:05:23.729Z,100993.47
2022-10-03T02:06:35.302Z,100990.78
2022-10-03T02:08:08.041Z,100993.47
2022-10-03T02:09:16.527Z,100950.91
2022-10-03T02:10:59.642Z,100993.78
2022-10-03T02:12:19.877Z,100992.94
2022-10-03T02:13:50.719Z,101002.22
2022-10-03T02:15:37.571Z,100995.63
2022-10-03T02:17:10.850Z,100979.63
2022-10-03T02:18:25.350Z,100977.63
2022-10-03T02:19:30.395Z,100992.94
2022-10-03T02:20:43.352Z,100962.88
2022-10-03T02:21:51.520Z,100922.31
2022-10-03T02:22:56.185Z,100996.53
2022-10-03T02:24:16.089Z,100998.00
2022-10-03T02:25:31.412Z,100978.34
2022-10-03T02:27:21.275Z,100993.28
2022-10-03T02:28:34.989Z,101002.59
2022-10-03T02:30:17.252Z,100994.81
2022-10-03T02:31:57.768Z,100996.16
2022-10-03T02:33:17.653Z,100998.16
2022-10-03T02:34:25.348Z,100999.53
2022-10-03T02:36:04.315Z,100998.69
2022-10-03T02:37:08.620Z,101000.56
2022-10-03T02:38:37.325Z,100970.28
2022-10-03T02:40:17.776Z,100999.53
2022-10-03T02:41:44.148Z,100997.50
2022-10-03T02:43:16.135Z,101004.94
2022-10-03T02:44:20.420Z,101001.72
2022-10-03T02:45:43.509Z,101011.38
2022-10-03T02:47:03.115Z,101008.13
2022-10-03T02:48:43.104Z,101019.78
2022-10-03T02:50:06.211Z,101008.31
2022-10-03T02:51:10.684Z,101011.19
2022-10-03T02:52:53.956Z,101010.34
2022-10-03T02:54:37.770Z,101015.88
2022-10-03T02:56:04.052Z,101011.16
2022-10-03T02:57:23.479Z,101014.53
2022-10-03T02:58:49.479Z,101016.56
2022-10-03T03:00:04.090Z,101024.66
2022-10-03T03:01:23.752Z,101021.31
2022-10-03T03:03:04.296Z,100984.78
2022-10-03T03:04:24.827Z,101022.81
2022-10-03T03:05:45.369Z,101021.81
2022-10-03T03:07:26.608Z,101020.94
2022-10-03T03:08:43.515Z,101014.75
2022-10-03T03:10:15.082Z,101018.75
2022-10-03T03:11:39.461Z,100992.53
2022-10-03T03:13:18.531Z,101014.53
2022-10-03T03:14:26.660Z,101021.97
2022-10-03T03:15:50.159Z,101011.38
2022-10-03T03:17:24.519Z,101015.06
2022-10-03T03:18:26.173Z,101016.75
2022-10-03T03:19:36.548Z,101015.75
2022-10-03T03:21:11.475Z,100972.84
2022-10-03T03:22:25.972Z,101021.66
2022-10-03T03:23:56.965Z,101017.44
2022-10-03T03:25:16.994Z,101031.22
2022-10-03T03:26:31.917Z,101035.97
2022-10-03T03:28:27.706Z,101033.25
2022-10-03T03:29:48.828Z,101036.31
2022-10-03T03:30:50.479Z,101033.25
2022-10-03T03:31:55.285Z,101032.28
2022-10-03T03:33:07.164Z,101034.31
2022-10-03T03:34:34.857Z,101042.56
2022-10-03T03:36:10.450Z,101037.16
2022-10-03T03:37:19.921Z,101001.31
2022-10-03T03:38:35.511Z,100978.44
2022-10-03T03:39:55.790Z,101032.63
2022-10-03T03:41:31.326Z,101033.78
2022-10-03T03:43:05.805Z,101033.25
2022-10-03T03:44:29.950Z,101034.13
2022-10-03T03:45:50.583Z,101009.22
2022-10-03T03:47:24.621Z,101036.66
2022-10-03T03:48:42.365Z,101039.88
2022-10-03T03:50:07.835Z,101025.56
2022-10-03T03:51:47.428Z,101037.31
2022-10-03T03:52:59.709Z,101044.75
2022-10-03T03:54:46.559Z,100996.44
2022-10-03T03:56:09.534Z,101043.06
2022-10-03T03:57:39.850Z,101002.69
2022-10-03T03:59:05.680Z,101035.97
2022-10-03T04:00:17.439Z,101044.09
2022-10-03T04:01:31.936Z,101044.59
2022-10-03T04:02:53.992Z,101044.75
2022-10-03T04:04:16.982Z,101045.44
2022-10-03T04:05:42.228Z,101041.72
2022-10-03T04:06:57.836Z,101005.53
2022-10-03T04:08:31.974Z,101040.38
2022-10-03T04:09:45.744Z,101034.66
2022-10-03T04:11:39.212Z,101014.47
2022-10-03T04:13:02.338Z,101034.50
2022-10-03T04:14:29.939Z,101037.34
2022-10-03T04:15:37.301Z,101037.34
2022-10-03T04:17:04.803Z,101031.63
2022-10-03T04:18:54.170Z,101029.94
2022-10-03T04:20:04.682Z,101033.81
2022-10-03T04:21:07.140Z,101031.63
2022-10-03T04:22:29.595Z,100993.09
2022-10-03T04:23:43.766Z,101014.97
2022-10-03T04:25:06.187Z,100997.28
2022-10-03T04:26:29.056Z,101051.00
2022-10-03T04:28:04.966Z,101043.28
2022-10-03T04:29:06.693Z,101051.50
2022-10-03T04:30:15.314Z,101045.94
2022-10-03T04:31:49.607Z,101042.91
2022-10-03T04:33:05.577Z,101050.19
2022-10-03T04:34:10.270Z,101051.19
2022-10-03T04:35:42.854Z,101051.34
2022-10-03T04:37:03.660Z,100996.63
2022-10-03T04:38:39.166Z,101024.75
2022-10-03T04:40:11.941Z,101050.66
2022-10-03T04:41:29.521Z,101058.06
2022-10-03T04:42:58.407Z,101058.94
2022-10-03T04:44:12.113Z,100990.22
2022-10-03T04:45:19.816Z,101060.44
2022-10-03T04:46:33.842Z,100993.75
2022-10-03T04:47:52.778Z,101064.34
2022-10-03T04:49:18.818Z,101062.31
2022-10-03T04:50:32.822Z,101066.03
2022-10-03T04:51:48.510Z,101041.75
2022-10-03T04:53:25.985Z,101074.59
2022-10-03T04:54:51.097Z,101075.59
2022-10-03T04:56:12.929Z,101073.44
2022-10-03T04:57:28.758Z,101082.69
2022-10-03T04:58:39.479Z,101076.97
2022-10-03T04:59:49.025Z,101078.16
2022-10-03T05:00:57.544Z,101035.53
2022-10-03T05:02:30.217Z,100977.25
2022-10-03T05:03:49.740Z,101084.72
2022-10-03T05:05:03.213Z,101083.22
2022-10-03T05:06:32.367Z,101087.59
2022-10-03T05:07:51.059Z,101087.59
2022-10-03T05:09:11.771Z,101048.50
2022-10-03T05:10:44.825Z,101089.09
2022-10-03T05:11:59.654Z,101055.41
2022-10-03T05:13:19.449Z,101013.44
2022-10-03T05:14:30.187Z,101088.59
2022-10-03T05:15:50.412Z,101092.47
2022-10-03T05:17:07.495Z,101098.88
2022-10-03T05:18:26.678Z,101088.56
2022-10-03T05:19:46.843Z,101094.63
2022-10-03T05:20:57.815Z,101089.56
2022-10-03T05:22:08.292Z,101071.41
2022-10-03T05:23:30.085Z,101063.97
2022-10-03T05:25:02.898Z,101047.28
2022-10-03T05:26:44.487Z,101091.91
2022-10-03T05:28:15.547Z,101063.75
2022-10-03T05:29:37.428Z,101090.56
2022-10-03T05:31:17.872Z,101087.84
2022-10-03T05:32:48.027Z,101089.00
2022-10-03T05:34:12.790Z,100987.47
2022-10-03T05:35:20.237Z,101084.09
2022-10-03T05:36:43.834Z,101047.06
2022-10-03T05:38:13.326Z,101081.38
2022-10-03T05:39:26.495Z,101051.75
2022-10-03T05:40:30.641Z,101022.59
2022-10-03T05:41:36.423Z,101086.44
2022-10-03T05:42:58.332Z,101087.41
2022-10-03T05:44:17.788Z,101030.84
2022-10-03T05:45:23.571Z,101082.31
2022-10-03T05:47:05.446Z,101059.44
2022-10-03T05:48:32.247Z,101050.47
2022-10-03T05:49:36.423Z,101085.28
2022-10-03T05:50:58.409Z,101058.91
2022-10-03T05:52:28.845Z,101088.31
2022-10-03T05:53:39.368Z,101083.56
2022-10-03T05:54:50.421Z,101082.72
2022-10-03T05:56:15.835Z,101085.44
2022-10-03T05:57:32.716Z,101085.13
2022-10-03T05:58:40.562Z,101085.97
2022-10-03T06:00:00.130Z,101090.50
2022-10-03T06:01:26.712Z,101085.25
2022-10-03T06:02:49.894Z,101084.91
2022-10-03T06:04:19.305Z,101078.03
2022-10-03T06:05:35.962Z,101092.66
2022-10-03T06:07:01.830Z,101083.69
2022-10-03T06:08:41.905Z,101080.31
2022-10-03T06:10:05.590Z,101091.28
2022-10-03T06:11:22.155Z,101080.47
2022-10-03T06:12:50.955Z,101091.28
2022-10-03T06:14:35.510Z,101061.31
2022-10-03T06:15:55.995Z,101089.53
2022-10-03T06:17:24.563Z,101083.47
2022-10-03T06:18:44.173Z,101088.38
2022-10-03T06:19:56.943Z,101088.56
2022-10-03T06:21:23.448Z,101092.09
2022-10-03T06:22:34.120Z,101098.34
2022-10-03T06:24:20.423Z,101093.78
2022-10-03T06:25:48.212Z,101098.50
2022-10-03T06:27:27.382Z,101099.31
2022-10-03T06:28:48.716Z,101106.41
2022-10-03T06:30:05.880Z,101110.13
2022-10-03T06:31:07.662Z,101105.44
2022-10-03T06:32:09.392Z,101112.22
2022-10-03T06:33:32.713Z,101049.56
2022-10-03T06:35:06.468Z,101110.19
2022-10-03T06:36:23.480Z,101113.53
2022-10-03T06:37:59.002Z,101088.66
2022-10-03T06:39:34.571Z,101120.94
2022-10-03T06:41:03.515Z,101131.75
2022-10-03T06:42:24.851Z,101127.56
2022-10-03T06:44:07.994Z,101098.56
2022-10-03T06:45:30.850Z,101128.03
2022-10-03T06:46:50.918Z,101138.81
2022-10-03T06:48:01.311Z,101130.41
2022-10-03T06:49:23.483Z,101102.19
2022-10-03T06:50:30.846Z,101131.59
2022-10-03T06:51:54.344Z,101136.53
2022-10-03T06:53:01.906Z,101136.19
2022-10-03T06:54:24.914Z,101142.59
2022-10-03T06:56:10.952Z,101136.66
2022-10-03T06:57:56.783Z,101136.97
2022-10-03T06:58:59.414Z,101135.97
2022-10-03T07:00:11.070Z,101108.88
2022-10-03T07:01:12.977Z,101137.84
2022-10-03T07:02:20.375Z,101139.22
2022-10-03T07:03:44.154Z,101142.94
2022-10-03T07:05:10.065Z,101144.94
2022-10-03T07:06:20.796Z,101147.66
2022-10-03T07:07:34.556Z,101126.44
2022-10-03T07:09:13.953Z,101147.81
2022-10-03T07:10:28.098Z,101149.84
2022-10-03T07:11:56.272Z,101151.16
2022-10-03T07:13:00.951Z,101144.59
2022-10-03T07:14:33.910Z,101140.38
2022-10-03T07:17:39.357Z,101146.56
2022-10-03T07:18:56.340Z,101123.38
2022-10-03T07:20:26.095Z,101152.19
2022-10-03T07:21:31.262Z,101148.81
2022-10-03T07:23:04.891Z,101151.66
2022-10-03T07:24:25.657Z,101152.53
2022-10-03T07:25:39.295Z,101152.69
2022-10-03T07:27:05.092Z,101156.06
2022-10-03T07:28:49.619Z,101150.50
2022-10-03T07:30:09.717Z,101154.69
2022-10-03T07:31:33.842Z,101147.94
2022-10-03T07:33:11.508Z,101139.22
2022-10-03T07:34:34.405Z,101128.91
2022-10-03T07:36:04.167Z,101160.44
2022-10-03T07:37:27.293Z,101156.06
2022-10-03T07:38:59.783Z,101162.78
2022-10-03T07:40:26.868Z,101160.94
2022-10-03T07:42:09.624Z,101128.13
2022-10-03T07:43:26.023Z,101161.09
2022-10-03T07:44:36.929Z,101155.41
2022-10-03T07:45:45.774Z,101163.66
2022-10-03T07:47:45.725Z,101171.75
2022-10-03T07:48:58.970Z,101171.91
2022-10-03T07:50:30.326Z,101170.59
2022-10-03T07:52:00.863Z,101170.06
2022-10-03T07:53:14.426Z,101170.22
2022-10-03T07:54:24.892Z,101170.59
2022-10-03T07:55:50.960Z,101172.47
2022-10-03T07:57:13.817Z,101131.69
2022-10-03T07:58:37.950Z,101176.50
2022-10-03T08:00:12.358Z,101167.72
2022-10-03T08:01:48.653Z,101170.91
2022-10-03T08:02:59.051Z,101172.78
2022-10-03T08:04:22.661Z,101177.88
2022-10-03T08:05:30.246Z,101177.00
2022-10-03T08:06:45.566Z,101174.47
2022-10-03T08:08:08.253Z,101181.22
2022-10-03T08:09:37.019Z,101158.16
2022-10-03T08:10:59.356Z,101181.69
2022-10-03T08:12:33.520Z,101179.19
2022-10-03T08:13:41.711Z,101180.03
2022-10-03T08:14:53.317Z,101145.03
2022-10-03T08:16:08.539Z,101181.03
2022-10-03T08:17:15.895Z,101180.38
2022-10-03T08:18:32.072Z,101183.44
2022-10-03T08:20:11.278Z,101193.38
2022-10-03T08:21:36.862Z,101151.38
2022-10-03T08:22:54.637Z,101180.69
2022-10-03T08:24:13.660Z,101187.97
2022-10-03T08:25:21.814Z,101182.56
2022-10-03T08:26:32.948Z,101131.50
2022-10-03T08:28:04.841Z,101180.03
2022-10-03T08:29:23.860Z,101148.88
2022-10-03T08:31:36.076Z,101151.06
2022-10-03T08:32:37.843Z,101184.00
2022-10-03T08:33:51.711Z,101188.44
2022-10-03T08:34:56.374Z,101186.09
2022-10-03T08:36:22.484Z,101185.06
2022-10-03T08:37:54.790Z,101186.75
2022-10-03T08:39:18.438Z,101188.44
2022-10-03T08:40:31.740Z,101185.56
2022-10-03T08:41:39.520Z,101189.44
2022-10-03T08:43:05.993Z,101190.66
2022-10-03T08:44:13.752Z,101187.78
2022-10-03T08:45:51.843Z,101158.16
2022-10-03T08:47:32.885Z,101193.13
2022-10-03T08:48:53.122Z,101192.78
2022-10-03T08:50:05.687Z,101183.69
2022-10-03T08:51:47.961Z,101185.38
2022-10-03T08:53:20.712Z,101173.78
2022-10-03T08:54:45.773Z,101194.66
2022-10-03T08:56:28.053Z,101188.38
2022-10-03T08:57:38.787Z,101198.38
2022-10-03T08:59:08.291Z,101115.53
2022-10-03T09:00:36.370Z,101158.97
2022-10-03T09:02:07.559Z,101195.16
2022-10-03T09:03:47.062Z,101197.34
2022-10-03T09:04:51.442Z,101196.50
2022-10-03T09:06:19.526Z,101193.31
2022-10-03T09:07:33.071Z,101189.97
2022-10-03T09:09:06.006Z,101154.13
2022-10-03T09:10:45.206Z,101196.50
2022-10-03T09:12:24.243Z,101195.31
2022-10-03T09:13:37.992Z,101198.38
2022-10-03T09:14:42.428Z,101211.38
2022-10-03T09:15:47.080Z,101206.34
2022-10-03T09:17:03.116Z,101197.56
2022-10-03T09:18:30.618Z,101200.41
2022-10-03T09:19:38.714Z,101198.88
2022-10-03T09:20:53.470Z,101161.88
2022-10-03T09:22:14.737Z,101198.53
2022-10-03T09:23:38.900Z,101194.34
2022-10-03T09:25:13.922Z,101199.88
2022-10-03T09:26:43.632Z,101199.88
2022-10-03T09:28:12.771Z,101201.22
2022-10-03T09:29:32.082Z,101205.75
2022-10-03T09:30:50.400Z,101203.25
2022-10-03T09:32:13.802Z,101201.22
2022-10-03T09:33:42.143Z,101206.13
2022-10-03T09:35:21.054Z,101205.41
2022-10-03T09:36:44.496Z,101203.72
2022-10-03T09:38:07.755Z,101192.78
2022-10-03T09:39:30.950Z,101198.53
2022-10-03T09:40:44.344Z,101202.03
2022-10-03T09:42:00.934Z,101199.69
2022-10-03T09:43:35.285Z,101133.88
2022-10-03T09:45:19.051Z,101197.81
2022-10-03T09:46:44.129Z,101203.88
2022-10-03T09:48:24.111Z,101196.44
2022-10-03T09:49:50.244Z,101199.13
2022-10-03T09:51:02.033Z,101183.78
2022-10-03T09:52:39.599Z,101170.03
2022-10-03T09:53:56.399Z,101206.22
2022-10-03T09:55:19.843Z,101199.78
2022-10-03T09:56:40.657Z,101210.09
2022-10-03T09:57:45.461Z,101202.19
2022-10-03T09:59:11.257Z,101181.00
2022-10-03T10:00:20.258Z,101149.16
2022-10-03T10:01:42.935Z,101203.88
2022-10-03T10:03:06.506Z,101163.94
2022-10-03T10:04:50.219Z,101214.63
2022-10-03T10:06:30.065Z,101139.44
2022-10-03T10:07:34.639Z,101207.16
2022-10-03T10:09:13.539Z,101207.34
2022-10-03T10:10:21.016Z,101209.88
2022-10-03T10:11:39.331Z,101204.47
2022-10-03T10:13:18.320Z,101220.50
2022-10-03T10:15:11.187Z,101214.75
2022-10-03T10:16:52.027Z,101216.53
2022-10-03T10:18:21.828Z,101222.81
2022-10-03T10:19:31.673Z,101183.72
2022-10-03T10:20:42.106Z,101223.69
2022-10-03T10:21:49.469Z,101224.03
2022-10-03T10:23:00.159Z,101230.47
2022-10-03T10:24:28.178Z,101193.06
2022-10-03T10:25:38.777Z,101222.66
2022-10-03T10:26:54.145Z,101233.47
2022-10-03T10:27:58.604Z,101226.38
2022-10-03T10:29:26.686Z,101233.84
2022-10-03T10:30:49.951Z,101230.25
2022-10-03T10:32:21.534Z,101232.75
2022-10-03T10:34:00.515Z,101230.75
2022-10-03T10:35:31.212Z,101233.75
2022-10-03T10:36:42.290Z,101237.84
2022-10-03T10:38:09.656Z,101239.19
2022-10-03T10:39:28.120Z,101239.88
2022-10-03T10:40:59.851Z,101239.88
2022-10-03T10:42:17.038Z,101234.13
2022-10-03T10:43:49.597Z,101237.66
2022-10-03T10:45:15.658Z,101230.75
2022-10-03T10:46:23.063Z,101238.88
2022-10-03T10:47:42.707Z,101239.19
2022-10-03T10:49:38.360Z,101231.56
2022-10-03T10:51:07.960Z,101237.47
2022-10-03T10:52:27.966Z,101237.28
2022-10-03T10:54:00.161Z,101229.06
2022-10-03T10:55:03.731Z,101239.53
2022-10-03T10:56:23.151Z,101236.16
2022-10-03T10:57:59.929Z,101234.47
2022-10-03T10:59:39.177Z,101205.13
2022-10-03T11:00:58.946Z,101218.59
2022-10-03T11:02:26.900Z,101215.56
2022-10-03T11:03:47.318Z,101237.47
2022-10-03T11:05:22.752Z,101231.22
2022-10-03T11:06:29.944Z,101235.81
2022-10-03T11:08:13.629Z,101219.97
2022-10-03T11:09:33.980Z,101237.13
2022-10-03T11:11:13.155Z,101240.84
2022-10-03T11:12:44.166Z,101242.53
2022-10-03T11:14:09.953Z,101240.66
2022-10-03T11:15:36.728Z,101236.28
2022-10-03T11:17:38.341Z,101238.44
2022-10-03T11:19:14.081Z,101244.69
2022-10-03T11:20:24.597Z,101247.94
2022-10-03T11:21:33.301Z,101240.34
2022-10-03T11:22:58.971Z,101252.03
2022-10-03T11:24:41.295Z,101241.00
2022-10-03T11:26:01.178Z,101242.53
2022-10-03T11:27:20.910Z,101245.75
2022-10-03T11:28:40.680Z,101249.50
2022-10-03T11:30:19.251Z,101235.59
2022-10-03T11:31:48.855Z,101231.56
2022-10-03T11:33:15.069Z,101246.25
2022-10-03T11:34:38.505Z,101254.19
2022-10-03T11:35:46.028Z,101239.19
2022-10-03T11:37:11.400Z,101240.56
2022-10-03T11:38:25.369Z,101253.72
2022-10-03T11:39:49.177Z,101251.66
2022-10-03T11:41:11.620Z,101253.72
2022-10-03T11:42:25.276Z,101255.19
2022-10-03T11:43:45.255Z,101255.03
2022-10-03T11:44:58.122Z,101258.94
2022-10-03T11:46:21.471Z,101257.91
2022-10-03T11:48:01.361Z,101260.44
2022-10-03T11:49:30.699Z,101257.53
2022-10-03T11:50:50.333Z,101256.88
2022-10-03T11:52:24.419Z,101264.63
2022-10-03T11:53:41.563Z,101261.28
2022-10-03T11:54:49.195Z,101236.84
2022-10-03T11:56:12.731Z,101262.50
2022-10-03T11:57:23.466Z,101265.00
2022-10-03T11:58:25.312Z,101262.50
2022-10-03T11:59:48.651Z,101259.78
2022-10-03T12:01:16.631Z,101264.84
2022-10-03T12:03:03.137Z,101258.69
2022-10-03T12:04:23.682Z,101265.97
2022-10-03T12:05:37.894Z,101229.75
2022-10-03T12:07:13.125Z,101270.03
2022-10-03T12:08:50.092Z,101263.44
2022-10-03T12:10:38.540Z,101254.31
2022-10-03T12:11:53.806Z,101233.78
2022-10-03T12:12:57.516Z,101230.31
2022-10-03T12:14:11.150Z,101210.91
2022-10-03T12:15:30.600Z,101273.41
2022-10-03T12:16:54.242Z,101263.44
2022-10-03T12:18:11.934Z,101197.38
2022-10-03T12:19:25.096Z,101268.00
2022-10-03T12:20:42.008Z,101237.56
2022-10-03T12:22:01.097Z,101236.84
2022-10-03T12:23:20.916Z,101237.22
2022-10-03T12:24:28.154Z,101281.72
2022-10-03T12:25:35.074Z,101245.50
2022-10-03T12:26:55.406Z,101272.75
2022-10-03T12:28:01.239Z,101253.06
2022-10-03T12:29:05.207Z,101283.78
2022-10-03T12:30:16.448Z,101275.00
2022-10-03T12:31:21.892Z,101272.09
2022-10-03T12:32:44.220Z,101280.41
2022-10-03T12:33:51.702Z,101274.63
2022-10-03T12:35:07.762Z,101271.28
2022-10-03T12:36:15.485Z,101272.75
2022-10-03T12:37:24.747Z,101239.25
2022-10-03T12:38:51.275Z,101245.16
2022-10-03T12:40:15.814Z,101251.69
2022-10-03T12:41:43.052Z,101228.31
2022-10-03T12:43:02.236Z,101270.03
2022-10-03T12:44:07.035Z,101279.31
2022-10-03T12:45:47.672Z,101279.97
2022-10-03T12:47:37.707Z,101258.41
2022-10-03T12:48:55.655Z,101262.13
2022-10-03T12:50:29.290Z,101278.59
2022-10-03T12:51:51.699Z,101282.16
2022-10-03T12:53:02.706Z,101283.19
2022-10-03T12:54:16.468Z,101278.97
2022-10-03T12:55:28.416Z,101239.56
2022-10-03T12:56:39.168Z,101280.34
2022-10-03T12:57:49.568Z,101283.06
2022-10-03T12:59:11.477Z,101244.28
2022-10-03T13:00:27.781Z,101224.72
2022-10-03T13:01:38.707Z,101275.59
2022-10-03T13:03:06.393Z,101276.25
2022-10-03T13:04:08.044Z,101283.34
2022-10-03T13:05:38.548Z,101278.97
2022-10-03T13:07:05.839Z,101261.09
2022-10-03T13:08:19.682Z,101280.28
2022-10-03T13:09:50.036Z,101251.13
2022-10-03T13:11:03.155Z,101252.03
2022-10-03T13:12:17.688Z,101277.94
2022-10-03T13:13:36.552Z,101233.84
2022-10-03T13:14:45.870Z,101253.41
2022-10-03T13:16:19.791Z,101279.47
2022-10-03T13:17:37.315Z,101226.38
2022-10-03T13:18:51.119Z,101234.47
2022-10-03T13:20:11.079Z,101248.31
2022-10-03T13:21:44.573Z,101281.50
2022-10-03T13:22:57.901Z,101207.03
2022-10-03T13:24:09.815Z,101284.88
2022-10-03T13:25:22.816Z,101218.34
2022-10-03T13:26:50.875Z,101276.75
2022-10-03T13:28:11.173Z,101261.78
2022-10-03T13:29:25.609Z,101234.81
2022-10-03T13:30:32.790Z,101244.97
2022-10-03T13:31:39.193Z,101201.84
2022-10-03T13:32:58.392Z,101278.97
2022-10-03T13:34:12.837Z,101279.78
2022-10-03T13:35:39.425Z,101278.97
2022-10-03T13:36:55.215Z,101246.97
2022-10-03T13:38:07.720Z,101250.81
2022-10-03T13:39:38.472Z,101228.13
2022-10-03T13:40:48.046Z,101232.28
2022-10-03T13:42:20.848Z,101275.72
2022-10-03T13:43:33.390Z,101273.19
2022-10-03T13:44:40.310Z,101231.44
2022-10-03T13:45:44.733Z,101259.72
2022-10-03T13:46:53.503Z,101272.91
2022-10-03T13:48:06.787Z,101242.75
2022-10-03T13:49:22.801Z,101241.72
2022-10-03T13:50:43.487Z,101269.16
2022-10-03T13:52:16.598Z,101241.69
2022-10-03T13:53:30.124Z,101271.81
2022-10-03T13:55:03.630Z,101234.41
2022-10-03T13:56:14.178Z,101194.84
2022-10-03T13:57:21.878Z,101198.41
2022-10-03T13:58:36.705Z,101212.09
2022-10-03T13:59:50.661Z,101272.69
2022-10-03T14:01:17.355Z,101252.84
2022-10-03T14:02:50.284Z,101269.09
2022-10-03T14:04:22.802Z,101274.34
2022-10-03T14:06:10.239Z,101279.19
2022-10-03T14:07:41.041Z,101275.19
2022-10-03T14:09:12.241Z,101229.06
2022-10-03T14:10:26.815Z,101236.94
2022-10-03T14:12:12.010Z,101271.66
2022-10-03T14:13:38.753Z,101274.72
2022-10-03T14:14:43.516Z,101253.47
2022-10-03T14:16:13.627Z,101258.75
2022-10-03T14:17:26.183Z,101265.13
2022-10-03T14:18:45.743Z,101258.75
2022-10-03T14:19:59.736Z,101268.81
2022-10-03T14:21:29.292Z,101272.16
2022-10-03T14:22:45.608Z,101237.66
2022-10-03T14:24:01.347Z,101210.06
2022-10-03T14:25:41.295Z,101273.19
2022-10-03T14:26:45.543Z,101274.72
2022-10-03T14:27:59.235Z,101281.97
2022-10-03T14:29:26.097Z,101277.41
2022-10-03T14:30:36.776Z,101241.91
2022-10-03T14:31:57.508Z,101282.34
2022-10-03T14:33:13.207Z,101255.75
2022-10-03T14:34:41.005Z,101258.25
2022-10-03T14:36:17.023Z,101284.31
2022-10-03T14:37:27.680Z,101287.88
2022-10-03T14:39:03.359Z,101290.09
2022-10-03T14:40:07.949Z,101296.16
2022-10-03T14:41:14.899Z,101252.38
2022-10-03T14:42:38.204Z,101291.09
2022-10-03T14:43:49.786Z,101293.16
2022-10-03T14:45:01.787Z,101260.81
2022-10-03T14:46:06.235Z,101260.81
2022-10-03T14:47:14.937Z,101252.72
2022-10-03T14:48:22.396Z,101242.25
2022-10-03T14:51:10.462Z,101293.28
2022-10-03T14:52:28.904Z,101256.88
2022-10-03T14:53:31.081Z,101255.69
2022-10-03T14:54:37.730Z,101298.19
2022-10-03T14:55:46.668Z,101168.50
2022-10-03T14:56:51.607Z,101158.72
2022-10-03T14:58:10.244Z,101259.13
2022-10-03T14:59:20.628Z,101246.63
2022-10-03T15:00:27.813Z,101246.41
2022-10-03T15:01:30.124Z,101299.59
2022-10-03T15:02:38.700Z,101171.88
2022-10-03T15:03:45.324Z,101290.38
2022-10-03T15:04:47.947Z,101249.63
2022-10-03T15:05:59.420Z,101290.59
2022-10-03T15:07:02.926Z,101239.53
2022-10-03T15:08:15.372Z,101263.97
2022-10-03T15:09:24.686Z,101295.44
2022-10-03T15:10:29.333Z,101287.69
2022-10-03T15:11:36.942Z,101261.78
2022-10-03T15:12:43.929Z,101262.44
2022-10-03T15:13:53.283Z,101263.44
2022-10-03T15:15:01.245Z,101246.28
2022-10-03T15:16:03.221Z,101261.94
2022-10-03T15:17:16.688Z,101305.91
2022-10-03T15:18:23.133Z,101292.44
2022-10-03T15:19:39.720Z,101275.22
2022-10-03T15:20:43.397Z,101307.06
2022-10-03T15:21:47.262Z,101309.94
2022-10-03T15:22:53.520Z,101243.47
2022-10-03T15:24:02.072Z,101309.28
2022-10-03T15:25:09.860Z,101314.50
2022-10-03T15:26:21.944Z,101266.16
2022-10-03T15:27:26.759Z,101232.16
2022-10-03T15:28:37.008Z,101281.31
2022-10-03T15:29:40.508Z,101307.94
2022-10-03T15:30:43.267Z,101289.06
2022-10-03T15:31:49.280Z,101191.72